Time;durP1;ratioP1;P1;durP2;ratioP2;P2;SDS_P1;SDS_P2;PMS_P1;PMS_P2;Temp;Humidity;BMP_temperature;BMP_pressure;BME280_temperature;BME280_humidity;BME280_pressure;Samples;Min_cycle;Max_cycle;Signal;HPM_P1;HPM_P2
2023/05/31 00:01:10;;;;;;;6.50;2.57;;;13.30;75.00;;;;;;5101385;28;20648;-78
2023/05/31 00:03:40;;;;;;;4.57;2.60;;;13.30;74.70;;;;;;5091455;28;20207;-79
2023/05/31 00:06:11;;;;;;;4.67;2.70;;;13.30;74.40;;;;;;5091252;28;20191;-78
2023/05/31 00:08:40;;;;;;;4.63;2.57;;;13.30;74.90;;;;;;5091622;28;20212;-78
2023/05/31 00:11:08;;;;;;;4.73;2.87;;;13.20;76.00;;;;;;5091947;28;20207;-78
2023/05/31 00:13:38;;;;;;;7.30;2.93;;;13.20;75.30;;;;;;5091208;28;20222;-77
2023/05/31 00:16:07;;;;;;;5.90;2.97;;;13.20;74.70;;;;;;5091656;28;20268;-78
2023/05/31 00:18:55;;;;;;;4.03;2.20;;;13.10;75.00;;;;;;5111461;28;20210;-77
2023/05/31 00:21:25;;;;;;;5.77;2.70;;;13.00;75.50;;;;;;5113702;28;20243;-80
2023/05/31 00:23:53;;;;;;;5.80;2.50;;;13.00;74.70;;;;;;5115166;28;20248;-78
2023/05/31 00:26:21;;;;;;;4.50;2.43;;;13.00;74.50;;;;;;5112362;28;20202;-77
2023/05/31 00:28:50;;;;;;;4.67;2.57;;;13.00;74.40;;;;;;5095297;28;20218;-77
2023/05/31 00:31:18;;;;;;;4.53;2.53;;;13.00;74.70;;;;;;5095412;28;20207;-78
2023/05/31 00:33:46;;;;;;;5.70;2.50;;;12.90;75.10;;;;;;5094753;28;20235;-77
2023/05/31 00:36:15;;;;;;;6.50;2.53;;;12.90;74.90;;;;;;5094692;28;20219;-78
2023/05/31 00:38:44;;;;;;;5.70;2.80;;;12.90;74.60;;;;;;5095161;28;20241;-76
2023/05/31 00:41:12;;;;;;;6.07;2.40;;;12.80;75.30;;;;;;5094791;28;20215;-78
2023/05/31 00:43:40;;;;;;;6.40;2.60;;;12.70;75.20;;;;;;5094222;28;20540;-77
2023/05/31 00:46:14;;;;;;;4.37;2.40;;;12.80;74.80;;;;;;5095005;28;20206;-76
2023/05/31 00:48:42;;;;;;;5.07;2.37;;;12.80;73.80;;;;;;5104782;28;20240;-78
2023/05/31 00:51:12;;;;;;;5.87;2.67;;;12.80;74.90;;;;;;5114712;28;20289;-78
2023/05/31 00:53:40;;;;;;;4.70;2.40;;;12.70;75.10;;;;;;5114631;28;20222;-78
2023/05/31 00:56:10;;;;;;;4.40;2.40;;;12.70;74.90;;;;;;5112166;28;20231;-78
2023/05/31 00:58:38;;;;;;;5.53;2.63;;;12.70;75.40;;;;;;5094437;28;20256;-78
2023/05/31 01:01:08;;;;;;;5.57;2.80;;;12.70;75.70;;;;;;5094101;28;20261;-78
2023/05/31 01:03:36;;;;;;;4.40;2.27;;;12.60;75.70;;;;;;5094071;28;20214;-78
2023/05/31 01:06:05;;;;;;;4.17;2.40;;;12.60;75.70;;;;;;5094074;28;20253;-77
2023/05/31 01:08:33;;;;;;;5.33;2.40;;;12.60;76.50;;;;;;5094273;28;20221;-78
2023/05/31 01:11:08;;;;;;;6.50;2.67;;;12.50;75.50;;;;;;5093637;28;20691;-78
2023/05/31 01:13:45;;;;;;;4.53;2.30;;;12.50;77.70;;;;;;5075894;28;20256;-77
2023/05/31 01:16:20;;;;;;;6.90;2.40;;;12.40;78.20;;;;;;5093972;28;20207;-78
2023/05/31 01:18:54;;;;;;;6.43;2.50;;;12.30;79.10;;;;;;5093682;28;20640;-78
2023/05/31 01:21:32;;;;;;;5.33;2.37;;;12.20;80.40;;;;;;5093575;28;20282;-79
2023/05/31 01:24:14;;;;;;;5.13;2.50;;;12.20;81.60;;;;;;5093492;28;20202;-79
2023/05/31 01:26:45;;;;;;;5.70;2.53;;;12.10;81.40;;;;;;5093602;28;20648;-78
2023/05/31 01:29:21;;;;;;;5.70;2.43;;;12.00;81.70;;;;;;5093858;28;20301;-78
2023/05/31 01:31:51;;;;;;;5.73;2.73;;;12.00;82.10;;;;;;5093577;28;20547;-79
2023/05/31 01:34:19;;;;;;;6.37;2.80;;;11.90;82.40;;;;;;5093698;28;20313;-78
2023/05/31 01:36:47;;;;;;;5.57;3.00;;;11.90;83.10;;;;;;5093301;28;20306;-79
2023/05/31 01:39:16;;;;;;;5.53;2.33;;;11.80;84.70;;;;;;5093429;28;20256;-76
2023/05/31 01:41:48;;;;;;;3.40;2.20;;;11.80;85.00;;;;;;5092477;28;20207;-77
2023/05/31 01:44:19;;;;;;;5.33;2.60;;;11.70;85.10;;;;;;5093439;28;20233;-77
2023/05/31 01:46:48;;;;;;;6.37;2.63;;;11.70;86.10;;;;;;5092875;28;20268;-77
2023/05/31 01:49:18;;;;;;;6.93;2.90;;;11.60;86.30;;;;;;5095482;28;20207;-77
2023/05/31 01:51:46;;;;;;;4.70;2.80;;;11.60;86.60;;;;;;5113885;28;20233;-78
2023/05/31 01:54:15;;;;;;;6.13;2.87;;;11.50;87.40;;;;;;5113540;28;20222;-78
2023/05/31 01:56:46;;;;;;;4.93;2.47;;;11.50;88.00;;;;;;5113354;28;20218;-77
2023/05/31 01:59:15;;;;;;;4.53;2.83;;;11.50;88.20;;;;;;5111568;28;20594;-78
2023/05/31 02:01:43;;;;;;;7.27;2.20;;;11.50;88.40;;;;;;5092768;28;20233;-77
2023/05/31 02:04:11;;;;;;;4.43;2.60;;;11.40;89.60;;;;;;5092803;28;20206;-76
2023/05/31 02:06:39;;;;;;;4.43;2.60;;;11.40;89.50;;;;;;5103951;28;20259;-79
2023/05/31 02:09:08;;;;;;;3.80;2.33;;;11.40;90.10;;;;;;5112191;28;20235;-77
2023/05/31 02:11:36;;;;;;;6.23;2.70;;;11.30;90.50;;;;;;5111613;28;20245;-76
2023/05/31 02:14:06;;;;;;;7.00;2.93;;;11.30;90.30;;;;;;5111316;28;20675;-76
2023/05/31 02:16:34;;;;;;;5.03;2.43;;;11.30;90.60;;;;;;5112956;28;20343;-79
2023/05/31 02:19:02;;;;;;;5.70;2.57;;;11.30;91.00;;;;;;5113043;28;20213;-77
2023/05/31 02:21:35;;;;;;;4.23;2.30;;;11.20;91.30;;;;;;5113100;28;20206;-79
2023/05/31 02:24:03;;;;;;;6.73;2.90;;;11.20;91.60;;;;;;5104369;28;20207;-79
2023/05/31 02:26:32;;;;;;;3.77;2.57;;;11.10;92.50;;;;;;5093078;28;20260;-79
2023/05/31 02:29:00;;;;;;;4.33;2.47;;;11.20;92.10;;;;;;5094247;28;20241;-79
2023/05/31 02:31:29;;;;;;;7.97;2.90;;;11.10;92.20;;;;;;5096044;28;20210;-78
2023/05/31 02:33:57;;;;;;;7.70;2.77;;;11.10;92.30;;;;;;5115119;28;20229;-77
2023/05/31 02:36:29;;;;;;;5.60;2.83;;;11.10;92.70;;;;;;5115217;28;20212;-78
2023/05/31 02:38:58;;;;;;;6.87;2.60;;;11.00;93.40;;;;;;5113321;28;20675;-77
2023/05/31 02:41:26;;;;;;;5.60;2.60;;;11.00;93.40;;;;;;5101468;28;20210;-78
2023/05/31 02:43:54;;;;;;;4.37;2.60;;;10.90;93.40;;;;;;5092295;28;20282;-78
2023/05/31 02:46:23;;;;;;;5.27;3.00;;;10.90;93.60;;;;;;5093614;28;20206;-77
2023/05/31 02:48:52;;;;;;;7.10;2.80;;;10.90;94.30;;;;;;5102945;28;20217;-77
2023/05/31 02:51:20;;;;;;;7.97;3.00;;;10.80;94.70;;;;;;5092633;28;20236;-77
2023/05/31 02:53:48;;;;;;;5.93;2.73;;;10.80;94.80;;;;;;5091897;28;20279;-78
2023/05/31 02:56:16;;;;;;;4.83;2.70;;;10.70;95.40;;;;;;5091857;28;20203;-77
2023/05/31 02:58:45;;;;;;;5.17;2.50;;;10.70;95.80;;;;;;5091700;28;20203;-77
2023/05/31 03:01:13;;;;;;;5.03;2.73;;;10.60;95.90;;;;;;5091806;28;20743;-77
2023/05/31 03:03:42;;;;;;;4.50;2.57;;;10.60;96.30;;;;;;5091892;28;20199;-76
2023/05/31 03:06:12;;;;;;;4.20;2.80;;;10.50;96.50;;;;;;5091894;28;20214;-78
2023/05/31 03:08:40;;;;;;;6.23;2.50;;;10.50;97.10;;;;;;5092270;28;20191;-77
2023/05/31 03:11:08;;;;;;;5.03;2.80;;;10.50;97.10;;;;;;5092074;28;20280;-78
2023/05/31 03:13:36;;;;;;;4.63;2.63;;;10.40;97.20;;;;;;5097254;28;20225;-76
2023/05/31 03:16:05;;;;;;;6.70;2.77;;;10.40;97.50;;;;;;5110611;28;20221;-79
2023/05/31 03:18:33;;;;;;;5.00;2.47;;;10.40;97.20;;;;;;5112331;28;20210;-76
2023/05/31 03:21:01;;;;;;;4.27;2.50;;;10.40;97.30;;;;;;5111825;28;20735;-77
2023/05/31 03:23:31;;;;;;;4.77;2.70;;;10.40;97.60;;;;;;5111945;28;20205;-76
2023/05/31 03:25:59;;;;;;;9.23;2.80;;;10.40;97.60;;;;;;5110684;28;20225;-77
2023/05/31 03:28:27;;;;;;;5.17;2.50;;;10.40;98.20;;;;;;5111929;28;20213;-76
2023/05/31 03:30:55;;;;;;;6.47;2.87;;;10.40;98.20;;;;;;5112184;28;20206;-76
2023/05/31 03:33:23;;;;;;;4.97;2.73;;;10.30;98.40;;;;;;5111459;28;20202;-77
2023/05/31 03:35:51;;;;;;;4.93;2.87;;;10.30;98.80;;;;;;5092562;28;20214;-76
2023/05/31 03:38:20;;;;;;;6.03;3.00;;;10.30;99.00;;;;;;5091777;28;20257;-79
2023/05/31 03:40:49;;;;;;;7.53;2.80;;;10.30;99.10;;;;;;5091606;28;20253;-77
2023/05/31 03:43:17;;;;;;;5.83;3.00;;;10.30;99.40;;;;;;5091375;28;20266;-77
2023/05/31 03:45:45;;;;;;;6.47;3.00;;;10.20;99.40;;;;;;5091720;28;20207;-78
2023/05/31 03:48:14;;;;;;;5.90;3.10;;;10.20;99.40;;;;;;5108915;28;20256;-78
2023/05/31 03:50:42;;;;;;;5.57;2.80;;;10.20;99.70;;;;;;5112075;28;20210;-78
2023/05/31 03:53:10;;;;;;;5.87;2.80;;;10.20;99.90;;;;;;5097531;28;20730;-77
2023/05/31 03:55:38;;;;;;;4.77;2.70;;;10.20;99.90;;;;;;5092163;28;20223;-78
2023/05/31 03:58:07;;;;;;;6.73;3.17;;;10.30;99.90;;;;;;5095447;28;20214;-78
2023/05/31 04:00:36;;;;;;;6.27;2.90;;;10.30;99.90;;;;;;5095605;28;20233;-78
2023/05/31 04:03:04;;;;;;;5.70;3.00;;;10.30;99.90;;;;;;5095102;28;20238;-77
2023/05/31 04:05:32;;;;;;;7.23;2.77;;;10.40;99.90;;;;;;5111649;28;20234;-77
2023/05/31 04:08:01;;;;;;;7.80;2.80;;;10.50;99.90;;;;;;5115740;28;20225;-76
2023/05/31 04:10:30;;;;;;;4.27;2.63;;;10.50;99.90;;;;;;5107230;28;20363;-77
2023/05/31 04:12:58;;;;;;;6.90;3.13;;;10.50;99.90;;;;;;5095479;28;20620;-77
2023/05/31 04:15:28;;;;;;;7.13;2.80;;;10.50;99.90;;;;;;5095069;28;20745;-77
2023/05/31 04:17:56;;;;;;;5.73;2.47;;;10.50;99.90;;;;;;5094958;28;20244;-76
2023/05/31 04:20:24;;;;;;;6.30;3.00;;;10.50;99.90;;;;;;5094782;28;20218;-77
2023/05/31 04:22:53;;;;;;;4.77;2.90;;;10.60;99.90;;;;;;5094752;28;20569;-77
2023/05/31 04:25:21;;;;;;;6.20;3.00;;;10.60;99.90;;;;;;5094970;28;20202;-78
2023/05/31 04:27:50;;;;;;;6.67;2.90;;;10.60;99.90;;;;;;5095406;28;20264;-77
2023/05/31 04:30:18;;;;;;;8.27;3.03;;;10.60;99.90;;;;;;5095319;28;20217;-76
2023/05/31 04:32:52;;;;;;;6.53;2.70;;;10.70;99.90;;;;;;5094767;28;20211;-79
2023/05/31 04:35:22;;;;;;;6.33;2.90;;;10.70;99.90;;;;;;5094300;28;20649;-78
2023/05/31 04:37:52;;;;;;;9.83;3.10;;;10.80;99.90;;;;;;5102713;28;20202;-78
2023/05/31 04:40:20;;;;;;;7.13;2.90;;;10.80;99.90;;;;;;5112893;28;20194;-79
2023/05/31 04:42:49;;;;;;;4.97;2.70;;;10.80;99.90;;;;;;5115237;28;20210;-78
2023/05/31 04:45:17;;;;;;;4.73;2.97;;;10.90;99.90;;;;;;5105737;28;20247;-76
2023/05/31 04:47:46;;;;;;;6.63;2.57;;;10.90;99.90;;;;;;5115292;28;20213;-77
2023/05/31 04:50:16;;;;;;;6.63;3.23;;;11.00;99.90;;;;;;5115174;28;20201;-78
2023/05/31 04:52:46;;;;;;;8.73;3.10;;;11.10;99.90;;;;;;5114980;28;20213;-78
2023/05/31 04:55:15;;;;;;;4.47;2.63;;;11.30;99.80;;;;;;5112392;28;20653;-79
2023/05/31 04:57:43;;;;;;;8.20;3.00;;;11.40;99.30;;;;;;5114130;28;20209;-79
2023/05/31 05:00:15;;;;;;;6.43;2.80;;;11.50;99.50;;;;;;5114215;28;20226;-78
2023/05/31 05:02:44;;;;;;;7.10;3.10;;;11.60;98.50;;;;;;5114752;28;20255;-77
2023/05/31 05:05:13;;;;;;;9.70;2.77;;;11.80;97.80;;;;;;5114379;28;20271;-79
2023/05/31 05:07:42;;;;;;;6.07;2.90;;;11.90;97.20;;;;;;5113948;28;20217;-78
2023/05/31 05:10:13;;;;;;;4.07;2.53;;;12.00;97.10;;;;;;5114378;28;20259;-79
2023/05/31 05:12:42;;;;;;;5.37;2.70;;;12.20;96.00;;;;;;5103010;28;20214;-77
2023/05/31 05:15:11;;;;;;;4.47;2.50;;;12.40;96.00;;;;;;5115226;28;20261;-77
2023/05/31 05:17:41;;;;;;;7.87;2.70;;;12.50;95.80;;;;;;5113241;28;20364;-78
2023/05/31 05:20:10;;;;;;;7.70;3.23;;;12.60;95.20;;;;;;5115667;28;20206;-79
2023/05/31 05:22:39;;;;;;;6.37;2.80;;;12.70;95.00;;;;;;5114685;28;20243;-76
2023/05/31 05:25:10;;;;;;;5.97;2.97;;;12.80;95.50;;;;;;5109383;28;20668;-77
2023/05/31 05:27:39;;;;;;;6.20;2.70;;;12.90;94.00;;;;;;5094199;28;20207;-80
2023/05/31 05:30:08;;;;;;;5.57;3.00;;;13.00;93.70;;;;;;5094886;28;20206;-78
2023/05/31 05:32:37;;;;;;;6.27;2.80;;;13.10;93.70;;;;;;5093664;28;20225;-79
2023/05/31 05:35:06;;;;;;;5.53;2.67;;;13.20;93.10;;;;;;5093607;28;20226;-77
2023/05/31 05:37:35;;;;;;;8.00;2.83;;;13.40;93.50;;;;;;5093909;28;20680;-77
2023/05/31 05:40:06;;;;;;;6.10;2.97;;;13.50;93.00;;;;;;5093598;28;20236;-78
2023/05/31 05:42:37;;;;;;;6.27;2.50;;;13.70;91.60;;;;;;5093446;28;20676;-77
2023/05/31 05:45:07;;;;;;;6.87;2.77;;;13.90;91.00;;;;;;5098884;28;20206;-77
2023/05/31 05:47:36;;;;;;;5.53;2.63;;;14.20;91.50;;;;;;5113902;28;20225;-78
2023/05/31 05:50:06;;;;;;;5.30;2.67;;;14.50;90.80;;;;;;5111751;22;20230;-77
2023/05/31 05:52:34;;;;;;;4.80;2.40;;;15.10;87.10;;;;;;5112894;28;20241;-79
2023/05/31 05:55:02;;;;;;;10.17;2.67;;;15.90;83.10;;;;;;5112978;28;20226;-77
2023/05/31 05:57:30;;;;;;;6.13;2.73;;;16.90;73.90;;;;;;5112033;27;20213;-80
2023/05/31 06:00:01;;;;;;;11.30;2.60;;;18.00;69.50;;;;;;5123232;27;20197;-80
2023/05/31 06:02:29;;;;;;;6.67;2.63;;;19.00;62.30;;;;;;5134087;27;20258;-78
2023/05/31 06:04:58;;;;;;;5.17;2.60;;;19.80;59.10;;;;;;5128750;27;20213;-79
